Logo AVAMET
Benvolgut visitant, si us plau, ingressa Recuperar contrasenya
AVAMET paisatges

Xàbia Cap de la Nau

Dades diàries. Acumulats / Últims 30 dies disponibles

Data Temperatura (°C) Humitat rel. (%) Pressió rel. (hPa) Vent (km/h) Precipitació
Mínima Mitjana Màxima Amplitud
tèrmica
Mínima Mitjana Màxima Mínima Mitjana Màxima Predom. Mitjana Ràfega
màxima
Total
(mm)
Índex-n
Mínima Mitjana Màxima Mínima Mitjana Màxima n
0 a 1
P0 max
mm 5'
Dades mensuals acumulades fins l'últim dia disponible
02/2020 9,1 12,1 15,5 14,5 12,9 17,5 25,3 16,2 29 78 99 1.020 1.025 1.031   7,9 42,5 2,1
Dades anuals acumulades fins l'últim dia disponible
2020 7,8 10,9 15,5 13,0 11,7 15,7 25,3 17,5 29 78 99 1.011 1.024 1.033   8,6 92,5 78,3
Últims 30 dies disponibles
17-02-2020 11,0     12,0     13,2 2,2 99 99 99 1.023 1.025 1.027 SO 12,2 37,0 0,0
16-02-2020 11,8     12,4     12,9 1,1 95 97 99 1.025 1.026 1.028 SO 17,9 42,5 0,0
15-02-2020 11,6     12,8     14,3 2,7 81 89 97 1.024 1.025 1.027 SO 10,0 37,0 0,0
14-02-2020 13,0     14,9     18,3 5,3 50 72 93 1.022 1.024 1.025 O 5,6 16,6 0,0
13-02-2020 11,5     13,7     17,2 5,7 61 80 98 1.020 1.022 1.023 SO 8,8 38,9 0,0
12-02-2020 12,1     13,7     16,2 4,1 75 87 98 1.021 1.023 1.024 N 8,2 25,9 0,0
11-02-2020 12,4     17,8     20,6 8,2 50 74 97 1.020 1.023 1.026 SSE 3,9 16,6 0,0
10-02-2020 12,0     14,9     20,5 8,5 49 68 87 1.025 1.028 1.031 SO 10,6 33,3 0,0
09-02-2020 10,4     12,5     15,5 5,1 74 87 99 1.025 1.028 1.031 ONO 10,9 33,3 0,0
08-02-2020 10,1     12,1     14,6 4,5 78 86 93 1.023 1.024 1.026 SO 5,0 22,2 0,0
07-02-2020 9,9     11,6     13,9 4,0 71 80 89 1.022 1.024 1.025 NNE 3,8 16,6 0,0
06-02-2020 9,1     11,7     14,3 5,2 66 82 97 1.024 1.026 1.028 SSE 3,9 16,6 0,3
05-02-2020 10,6     12,1     15,5 4,9 69 83 97 1.026 1.028 1.030 E 4,8 27,8 1,8
04-02-2020 15,5     20,3     25,3 9,8 29 50 70 1.021 1.024 1.026 O 6,4 25,9 0,0
03-02-2020 14,6     18,2     21,9 7,3 48 68 87 1.026 1.027 1.029 SO 6,6 25,9 0,0
02-02-2020 14,7     17,9     20,5 5,8 55 72 89 1.025 1.026 1.028 OSO 6,8 22,2 0,0
01-02-2020 15,2     18,4     22,8 7,6 51 63 75 1.020 1.022 1.025 ONO 8,5 38,9 0,0
31-01-2020 15,1     16,8     20,4 5,3 48 61 73 1.020 1.021 1.023 ONO 10,6 37,0 0,0
30-01-2020 15,1     16,4     18,8 3,7 43 59 75 1.019 1.021 1.023 O 5,5 22,2 0,0
29-01-2020 14,8     16,5     19,7 4,9 54 64 74 1.020 1.021 1.023 ONO 8,9 37,0 0,0
28-01-2020 12,1     14,9     18,6 6,5 56 69 82 1.020 1.021 1.023 O 6,5 25,9 0,0
27-01-2020 10,2     12,2     14,8 4,6 51 70 89 1.020 1.023 1.024 O 10,3 37,0 0,0
26-01-2020 10,4     12,6     15,7 5,3 59 79 98 1.017 1.020 1.024 ONO 5,9 22,2 0,0
25-01-2020 9,8     11,5     13,6 3,8 88 93 98 1.016 1.018 1.020 NNO 7,1 27,8 0,3
24-01-2020 9,4     11,3     14,4 5,0 87 93 99 1.019 1.021 1.022 N 5,1 16,6 0,3
23-01-2020 9,2     11,3     13,7 4,5 73 85 97 1.018 1.020 1.022 NNE 4,7 16,6 0,0
22-01-2020 9,8     11,3     17,7 7,9 81 89 96 1.015 1.017 1.019 N 7,5 33,3 0,0
21-01-2020 9,4     12,4     14,4 5,0 75 87 98 1.011 1.014 1.018 ESE 13,2 62,9 3,8 0,32 0,50
20-01-2020 7,8     10,3     13,4 5,6 83 91 99 1.015 1.016 1.018 ENE 19,1 90,7 43,5 0,32 2,00
19-01-2020 8,0     10,8     14,2 6,2 67 83 98 1.012 1.015 1.020 NNE 24,1 92,5 15,1 0,35 2,10
Últims 13 mesos disponibles
01/2020 7,8 10,2 15,1 12,2 11,7 14,8 20,4 12,6 59 78 93 1.014 1.024 1.031 OSO 9,0 92,5 76,2
12/2019 9,2 12,2 16,1 14,2 12,5 16,7 22,3 13,1 50 74 90 1.004 1.018 1.032 SO 10,6 90,7 104,2
11/2019 7,7 12,9 21,1 15,3 13,2 18,2 25,3 17,6 45 61 85 998 1.010 1.018 ONO 13,1 70,3 16,1
10/2019 11,9 17,8 21,8 20,1 16,3 22,8 26,9 15,0 43 73 90 1.008 1.015 1.021 SO 8,4 62,9 80,2
09/2019 13,3 21,0 23,8 23,1 22,2 24,9 27,9 14,6 57 83 98 1.013 1.020 1.026 N 11,1 72,2 180,7
08/2019 19,1 22,9 25,0 25,0 25,9 27,4 30,6 11,5 69 81 94 1.014 1.018 1.022 SSO 10,8 40,7 16,0
07/2019 21,2 22,9 25,0 25,1 26,4 27,9 31,5 10,3 59 77 89 1.005 1.015 1.023 N 9,3 51,8 2,2
06/2019 15,6 18,6 24,7 20,9 20,1 23,6 31,3 15,7 49 77 93 1.009 1.015 1.021 N 12,3 46,3 0,0
05/2019 10,6 15,0 17,8 17,3 16,8 19,9 24,6 14,0 60 77 92 1.003 1.015 1.024 SSO 10,9 44,4 12,3
04/2019 8,8 12,2 14,0 14,5 13,6 17,3 23,8 15,0 46 73 93 997 1.009 1.022 SSO 13,6 66,6 326,8
03/2019 7,6 11,2 13,6 13,6 12,4 16,7 24,6 17,0 45 67 97 1.007 1.019 1.026 SSO 11,5 53,8 22,3
02/2019 5,6 9,6 12,4 12,1 11,9 15,1 19,4 13,8 32 67 87 991 1.021 1.029 SSO 11,0 72,0 0,5
01/2019 5,0 9,7 12,5 12,0 9,7 14,6 18,5 13,5 33 57 77 998 1.014 1.027 SO 9,3 68,3 7,6
Tots els anys disponibles
2019 5,0 15,6 25,0 17,8 9,7 20,5 31,5 26,5 32 72 98 991 1.016 1.032 SO 11,0 90,7 768,9
2018 3,9 15,7 26,3 17,8 7,7 20,4 33,6 29,7 24 69 96 989 1.013 1.032 SO 11,3 83,8 702,1
Temperatura (°C)
Humitat relativa (%)
Velocitat del vent i ràfega màxima (km/h)
Direcció del vent (°)
Pressió (hPa)
Precipitació (mm)
Nota sobre les dades: s'avisa a l'usuari de la provisionalitat i no oficialitat d'aquestes dades
Logo AVAMET blanc
Web allotjada a Sollutia
Llicència de Creative CommonsLa web d'AVAMET i els seus continguts estan subjectes a una llicència de
Reconeixement - No Comercial - Compartir igual
Últimes estacions:  Sorita (AVAMET), Gorga (Soci), Massalavés - Ajuntament (Soci/Inforatge), Albuixech - Polígon (Inforatge), La Torre d'en Besora (Ajuntament soci), Xixona - Sogorb Barranc Blanc (Soci), Pedreguer - Patronat (Soci) - - -